DAL525 KDEN-KMSO
Flight info
| Callsign | DAL525 |
|---|---|
| Flight time | 1h 39m |
| Altitude | 36000 |
| Route | DDRTH1 DDRTH WEDAK |
| Aircraft | B738/M-SDE2E3FGHIRWXY/LB1 |
Departure
| Time | 2026-04-25 18:19 |
|---|---|
| Airport | Denver International Airport (KDEN) |
Arrival
| Time | 2026-04-25 19:58 |
|---|---|
| Airport | Missoula Montana Airport (KMSO) |
| Time | Latitude | Longitude | Altitude | Speed | Heading |
|---|---|---|---|---|---|
| 2026-04-25 17:58 | 39.85435 | -104.67490 | 5388 ft | 0 kts | 185° |
| 2026-04-25 18:09 | 39.85450 | -104.67488 | 5388 ft | 2 kts | 186° |
| 2026-04-25 18:09 | 39.85460 | -104.67487 | 5389 ft | 2 kts | 186° |
| 2026-04-25 18:10 | 39.85479 | -104.67484 | 5389 ft | 2 kts | 186° |
| 2026-04-25 18:10 | 39.85494 | -104.67479 | 5390 ft | 2 kts | 209° |
| 2026-04-25 18:10 | 39.85506 | -104.67467 | 5391 ft | 2 kts | 226° |
| 2026-04-25 18:10 | 39.85515 | -104.67452 | 5392 ft | 2 kts | 244° |
| 2026-04-25 18:11 | 39.85519 | -104.67434 | 5393 ft | 2 kts | 262° |
| 2026-04-25 18:11 | 39.85520 | -104.67424 | 5394 ft | 1 kts | 272° |
| 2026-04-25 18:11 | 39.85520 | -104.67419 | 5394 ft | 0 kts | 270° |
| 2026-04-25 18:13 | 39.85521 | -104.67457 | 5392 ft | 6 kts | 271° |
| 2026-04-25 18:13 | 39.85522 | -104.67529 | 5387 ft | 5 kts | 271° |
| 2026-04-25 18:13 | 39.85524 | -104.67600 | 5383 ft | 10 kts | 271° |
| 2026-04-25 18:14 | 39.85575 | -104.67798 | 5370 ft | 12 kts | 312° |
| 2026-04-25 18:14 | 39.85594 | -104.67924 | 5362 ft | 16 kts | 270° |
| 2026-04-25 18:14 | 39.85596 | -104.68098 | 5349 ft | 20 kts | 271° |
| 2026-04-25 18:14 | 39.85596 | -104.68278 | 5338 ft | 16 kts | 268° |
| 2026-04-25 18:15 | 39.85597 | -104.68433 | 5326 ft | 16 kts | 270° |
| 2026-04-25 18:15 | 39.85548 | -104.68516 | 5320 ft | 13 kts | 183° |
| 2026-04-25 18:15 | 39.85453 | -104.68517 | 5318 ft | 14 kts | 180° |
| 2026-04-25 18:15 | 39.85354 | -104.68518 | 5316 ft | 14 kts | 180° |
| 2026-04-25 18:16 | 39.85257 | -104.68519 | 5312 ft | 9 kts | 182° |
| 2026-04-25 18:16 | 39.85210 | -104.68581 | 5306 ft | 13 kts | 254° |
| 2026-04-25 18:16 | 39.85202 | -104.68886 | 5292 ft | 18 kts | 269° |
| 2026-04-25 18:17 | 39.85201 | -104.69062 | 5288 ft | 19 kts | 269° |
| 2026-04-25 18:17 | 39.85200 | -104.69267 | 5287 ft | 26 kts | 270° |
| 2026-04-25 18:17 | 39.85203 | -104.69481 | 5294 ft | 21 kts | 270° |
| 2026-04-25 18:17 | 39.85233 | -104.69640 | 5299 ft | 16 kts | 319° |
| 2026-04-25 18:18 | 39.85355 | -104.69658 | 5292 ft | 20 kts | 360° |
| 2026-04-25 18:18 | 39.85713 | -104.69653 | 5275 ft | 88 kts | 1° |
| 2026-04-25 18:18 | 39.86544 | -104.69647 | 5268 ft | 151 kts | 0° |
| 2026-04-25 18:18 | 39.87763 | -104.69640 | 5471 ft | 187 kts | 0° |
| 2026-04-25 18:19 | 39.89114 | -104.69658 | 6006 ft | 206 kts | 359° |
| 2026-04-25 18:19 | 39.90635 | -104.69678 | 6426 ft | 235 kts | 359° |
| 2026-04-25 18:19 | 39.92381 | -104.69691 | 6827 ft | 265 kts | 360° |
| 2026-04-25 18:19 | 39.94245 | -104.69672 | 7561 ft | 274 kts | 1° |
| 2026-04-25 18:20 | 39.96201 | -104.69584 | 8245 ft | 283 kts | 1° |
| 2026-04-25 18:20 | 39.98157 | -104.69490 | 8913 ft | 287 kts | 1° |
| 2026-04-25 18:20 | 40.00184 | -104.69417 | 9592 ft | 293 kts | 360° |
| 2026-04-25 18:20 | 40.02222 | -104.69366 | 10268 ft | 296 kts | 358° |
| 2026-04-25 18:21 | 40.04230 | -104.69696 | 10917 ft | 298 kts | 341° |
| 2026-04-25 18:21 | 40.06235 | -104.70674 | 11392 ft | 312 kts | 334° |
| 2026-04-25 18:21 | 40.08253 | -104.71848 | 11887 ft | 327 kts | 333° |
| 2026-04-25 18:21 | 40.10386 | -104.73064 | 12365 ft | 342 kts | 334° |
| 2026-04-25 18:22 | 40.12605 | -104.74258 | 12848 ft | 357 kts | 335° |
| 2026-04-25 18:22 | 40.14169 | -104.75067 | 13156 ft | 367 kts | 335° |
| 2026-04-25 18:22 | 40.17370 | -104.76683 | 14181 ft | 374 kts | 335° |
| 2026-04-25 18:22 | 40.19836 | -104.77916 | 14980 ft | 378 kts | 335° |
| 2026-04-25 18:23 | 40.22294 | -104.79146 | 15744 ft | 383 kts | 335° |
| 2026-04-25 18:23 | 40.24788 | -104.80397 | 16491 ft | 387 kts | 335° |
| 2026-04-25 18:23 | 40.27294 | -104.81660 | 17233 ft | 391 kts | 335° |
| 2026-04-25 18:23 | 40.29850 | -104.82954 | 17927 ft | 396 kts | 334° |
| 2026-04-25 18:24 | 40.32409 | -104.84251 | 18639 ft | 399 kts | 334° |
| 2026-04-25 18:24 | 40.34988 | -104.85561 | 19362 ft | 401 kts | 334° |
| 2026-04-25 18:24 | 40.37598 | -104.86887 | 19982 ft | 406 kts | 334° |
| 2026-04-25 18:24 | 40.40248 | -104.88235 | 20623 ft | 410 kts | 334° |
| 2026-04-25 18:25 | 40.42910 | -104.89591 | 21249 ft | 413 kts | 334° |
| 2026-04-25 18:25 | 40.45574 | -104.90949 | 21860 ft | 416 kts | 333° |
| 2026-04-25 18:25 | 40.48296 | -104.92339 | 22385 ft | 420 kts | 333° |
| 2026-04-25 18:25 | 40.51023 | -104.93733 | 22973 ft | 423 kts | 333° |
| 2026-04-25 18:26 | 40.53757 | -104.95131 | 23438 ft | 428 kts | 333° |
| 2026-04-25 18:26 | 40.56556 | -104.96562 | 24004 ft | 430 kts | 333° |
| 2026-04-25 18:26 | 40.59339 | -104.97988 | 24561 ft | 433 kts | 333° |
| 2026-04-25 18:26 | 40.62123 | -104.99414 | 25172 ft | 435 kts | 333° |
| 2026-04-25 18:27 | 40.64961 | -105.00868 | 25768 ft | 437 kts | 333° |
| 2026-04-25 18:27 | 40.67776 | -105.02312 | 26327 ft | 439 kts | 333° |
| 2026-04-25 18:27 | 40.70622 | -105.03793 | 26806 ft | 442 kts | 332° |
| 2026-04-25 18:27 | 40.73415 | -105.05493 | 27326 ft | 440 kts | 327° |
| 2026-04-25 18:28 | 40.75978 | -105.07584 | 27845 ft | 436 kts | 318° |
| 2026-04-25 18:28 | 40.78274 | -105.10189 | 28408 ft | 432 kts | 310° |
| 2026-04-25 18:28 | 40.80293 | -105.13055 | 28899 ft | 431 kts | 306° |
| 2026-04-25 18:29 | 40.84061 | -105.19170 | 30251 ft | 425 kts | 303° |
| 2026-04-25 18:29 | 40.85862 | -105.22204 | 30989 ft | 420 kts | 303° |
| 2026-04-25 18:30 | 40.91207 | -105.31247 | 33041 ft | 407 kts | 302° |
| 2026-04-25 18:30 | 40.92940 | -105.34177 | 33670 ft | 403 kts | 302° |
| 2026-04-25 18:30 | 40.94681 | -105.37121 | 34044 ft | 405 kts | 302° |
| 2026-04-25 18:30 | 40.96442 | -105.40101 | 34266 ft | 410 kts | 302° |
| 2026-04-25 18:31 | 40.98172 | -105.43021 | 34739 ft | 407 kts | 302° |
| 2026-04-25 18:31 | 40.99925 | -105.45975 | 35227 ft | 403 kts | 303° |
| 2026-04-25 18:31 | 41.01637 | -105.48857 | 35640 ft | 401 kts | 302° |
| 2026-04-25 18:31 | 41.03369 | -105.51780 | 35905 ft | 402 kts | 302° |
| 2026-04-25 18:32 | 41.06836 | -105.57648 | 35954 ft | 406 kts | 302° |
| 2026-04-25 18:32 | 41.10286 | -105.63485 | 35958 ft | 402 kts | 302° |
| 2026-04-25 18:33 | 41.13706 | -105.69295 | 35962 ft | 404 kts | 302° |
| 2026-04-25 18:33 | 41.17174 | -105.75183 | 35959 ft | 404 kts | 302° |
| 2026-04-25 18:34 | 41.20604 | -105.81022 | 35953 ft | 404 kts | 302° |
| 2026-04-25 18:34 | 41.24048 | -105.86895 | 35955 ft | 404 kts | 302° |
| 2026-04-25 18:35 | 41.27483 | -105.92758 | 35963 ft | 403 kts | 302° |
| 2026-04-25 18:35 | 41.30473 | -105.97881 | 35965 ft | 404 kts | 302° |
| 2026-04-25 18:36 | 41.33911 | -106.03773 | 35973 ft | 402 kts | 302° |
| 2026-04-25 18:36 | 41.37328 | -106.09644 | 35956 ft | 404 kts | 302° |
| 2026-04-25 18:37 | 41.40756 | -106.15548 | 35923 ft | 401 kts | 302° |
| 2026-04-25 18:37 | 41.44145 | -106.21399 | 35914 ft | 404 kts | 302° |
| 2026-04-25 18:38 | 41.47609 | -106.27278 | 35894 ft | 404 kts | 303° |
| 2026-04-25 18:38 | 41.51273 | -106.32998 | 35897 ft | 405 kts | 304° |
| 2026-04-25 18:39 | 41.54972 | -106.38671 | 35912 ft | 405 kts | 304° |
| 2026-04-25 18:39 | 41.58649 | -106.44355 | 35933 ft | 404 kts | 304° |
| 2026-04-25 18:40 | 41.62288 | -106.50023 | 35932 ft | 406 kts | 304° |
| 2026-04-25 18:40 | 41.65928 | -106.55723 | 35940 ft | 404 kts | 304° |
| 2026-04-25 18:41 | 41.69581 | -106.61462 | 35929 ft | 404 kts | 304° |
| 2026-04-25 18:41 | 41.73210 | -106.67175 | 35938 ft | 404 kts | 303° |
| 2026-04-25 18:42 | 41.76241 | -106.71957 | 35926 ft | 403 kts | 303° |
| 2026-04-25 18:42 | 41.80466 | -106.78632 | 35928 ft | 403 kts | 303° |
| 2026-04-25 18:43 | 41.84063 | -106.84332 | 35928 ft | 403 kts | 303° |
| 2026-04-25 18:43 | 41.87672 | -106.90060 | 35918 ft | 401 kts | 303° |
| 2026-04-25 18:44 | 41.91269 | -106.95779 | 35912 ft | 402 kts | 303° |
| 2026-04-25 18:44 | 41.94872 | -107.01517 | 35915 ft | 400 kts | 303° |
| 2026-04-25 18:45 | 41.98437 | -107.07210 | 35915 ft | 401 kts | 303° |
| 2026-04-25 18:45 | 42.02029 | -107.12953 | 35910 ft | 400 kts | 303° |
| 2026-04-25 18:46 | 42.05592 | -107.18658 | 35912 ft | 401 kts | 303° |
| 2026-04-25 18:46 | 42.09190 | -107.24436 | 35902 ft | 402 kts | 303° |
| 2026-04-25 18:47 | 42.12766 | -107.30191 | 35896 ft | 400 kts | 303° |
| 2026-04-25 18:47 | 42.16345 | -107.35960 | 35896 ft | 402 kts | 303° |
| 2026-04-25 18:48 | 42.19900 | -107.41704 | 35899 ft | 402 kts | 303° |
| 2026-04-25 18:48 | 42.23468 | -107.47474 | 35899 ft | 402 kts | 303° |
| 2026-04-25 18:49 | 42.26766 | -107.52814 | 35899 ft | 402 kts | 303° |
| 2026-04-25 18:49 | 42.30343 | -107.58624 | 35904 ft | 403 kts | 303° |
| 2026-04-25 18:50 | 42.33899 | -107.64413 | 35899 ft | 402 kts | 303° |
| 2026-04-25 18:50 | 42.37464 | -107.70223 | 35895 ft | 402 kts | 303° |
| 2026-04-25 18:51 | 42.40435 | -107.75075 | 35899 ft | 403 kts | 303° |
| 2026-04-25 18:51 | 42.44581 | -107.81860 | 35906 ft | 402 kts | 302° |
| 2026-04-25 18:52 | 42.48138 | -107.87695 | 35908 ft | 403 kts | 302° |
| 2026-04-25 18:52 | 42.51701 | -107.93544 | 35902 ft | 404 kts | 303° |
| 2026-04-25 18:53 | 42.55267 | -107.99416 | 35892 ft | 403 kts | 303° |
| 2026-04-25 18:53 | 42.58839 | -108.05308 | 35895 ft | 405 kts | 303° |
| 2026-04-25 18:54 | 42.64166 | -108.14114 | 35888 ft | 405 kts | 303° |
| 2026-04-25 18:55 | 42.67710 | -108.19989 | 35897 ft | 405 kts | 303° |
| 2026-04-25 18:55 | 42.71294 | -108.25945 | 35906 ft | 406 kts | 303° |
| 2026-04-25 18:56 | 42.74846 | -108.31854 | 35913 ft | 405 kts | 303° |
| 2026-04-25 18:56 | 42.78408 | -108.37798 | 35912 ft | 407 kts | 303° |
| 2026-04-25 18:57 | 42.81969 | -108.43753 | 35919 ft | 408 kts | 303° |
| 2026-04-25 18:57 | 42.85540 | -108.49734 | 35936 ft | 408 kts | 303° |
| 2026-04-25 18:58 | 42.89127 | -108.55748 | 35924 ft | 407 kts | 303° |
| 2026-04-25 18:58 | 42.94480 | -108.64751 | 35935 ft | 408 kts | 303° |
| 2026-04-25 18:59 | 43.01613 | -108.76798 | 35946 ft | 412 kts | 302° |
| 2026-04-25 19:00 | 43.06981 | -108.85888 | 35930 ft | 410 kts | 303° |
| 2026-04-25 19:01 | 43.12322 | -108.94964 | 35924 ft | 411 kts | 303° |
| 2026-04-25 19:01 | 43.15890 | -109.01042 | 35935 ft | 412 kts | 303° |
| 2026-04-25 19:02 | 43.21271 | -109.10238 | 35920 ft | 412 kts | 302° |
| 2026-04-25 19:03 | 43.26038 | -109.18398 | 35914 ft | 413 kts | 303° |
| 2026-04-25 19:03 | 43.30203 | -109.25554 | 36156 ft | 414 kts | 303° |
| 2026-04-25 19:04 | 43.33779 | -109.31706 | 35937 ft | 411 kts | 302° |
| 2026-04-25 19:04 | 43.35556 | -109.34769 | 35901 ft | 409 kts | 303° |
| 2026-04-25 19:05 | 43.42666 | -109.47065 | 35895 ft | 412 kts | 303° |
| 2026-04-25 19:06 | 43.46220 | -109.53225 | 35900 ft | 413 kts | 303° |
| 2026-04-25 19:06 | 43.51534 | -109.62470 | 35911 ft | 412 kts | 303° |
| 2026-04-25 19:07 | 43.56863 | -109.71763 | 35920 ft | 412 kts | 302° |
| 2026-04-25 19:08 | 43.62183 | -109.81078 | 35890 ft | 414 kts | 302° |
| 2026-04-25 19:09 | 43.68678 | -109.92477 | 35834 ft | 413 kts | 302° |
| 2026-04-25 19:10 | 43.74599 | -110.02912 | 35870 ft | 413 kts | 302° |
| 2026-04-25 19:10 | 43.78130 | -110.09155 | 35865 ft | 415 kts | 302° |
| 2026-04-25 19:11 | 43.81693 | -110.15472 | 35878 ft | 417 kts | 302° |
| 2026-04-25 19:11 | 43.85235 | -110.21763 | 35895 ft | 417 kts | 302° |
| 2026-04-25 19:12 | 43.88812 | -110.28129 | 35884 ft | 417 kts | 302° |
| 2026-04-25 19:12 | 43.92347 | -110.34428 | 35881 ft | 417 kts | 302° |
| 2026-04-25 19:13 | 43.95915 | -110.40808 | 35883 ft | 420 kts | 302° |
| 2026-04-25 19:13 | 43.99469 | -110.47172 | 35871 ft | 419 kts | 302° |
| 2026-04-25 19:14 | 44.03037 | -110.53573 | 35876 ft | 421 kts | 303° |
| 2026-04-25 19:14 | 44.06622 | -110.60024 | 35879 ft | 421 kts | 303° |
| 2026-04-25 19:15 | 44.10181 | -110.66439 | 35875 ft | 424 kts | 302° |
| 2026-04-25 19:15 | 44.13772 | -110.72926 | 35865 ft | 422 kts | 302° |
| 2026-04-25 19:16 | 44.17355 | -110.79412 | 35854 ft | 423 kts | 302° |
| 2026-04-25 19:16 | 44.20933 | -110.85905 | 35851 ft | 425 kts | 303° |
| 2026-04-25 19:17 | 44.24511 | -110.92411 | 35862 ft | 425 kts | 303° |
| 2026-04-25 19:17 | 44.28107 | -110.98970 | 35876 ft | 427 kts | 303° |
| 2026-04-25 19:18 | 44.31687 | -111.05511 | 35878 ft | 425 kts | 303° |
| 2026-04-25 19:18 | 44.35289 | -111.12108 | 35886 ft | 428 kts | 303° |
| 2026-04-25 19:19 | 44.38870 | -111.18682 | 35889 ft | 428 kts | 303° |
| 2026-04-25 19:19 | 44.42466 | -111.25294 | 35903 ft | 426 kts | 303° |
| 2026-04-25 19:20 | 44.46044 | -111.31892 | 35905 ft | 428 kts | 303° |
| 2026-04-25 19:20 | 44.49632 | -111.38528 | 35897 ft | 428 kts | 303° |
| 2026-04-25 19:21 | 44.53217 | -111.45168 | 35895 ft | 429 kts | 303° |
| 2026-04-25 19:21 | 44.58621 | -111.55205 | 35883 ft | 430 kts | 303° |
| 2026-04-25 19:22 | 44.62186 | -111.61853 | 35878 ft | 430 kts | 304° |
| 2026-04-25 19:23 | 44.67575 | -111.71920 | 35885 ft | 431 kts | 303° |
| 2026-04-25 19:23 | 44.72974 | -111.82040 | 35883 ft | 432 kts | 303° |
| 2026-04-25 19:24 | 44.76568 | -111.88802 | 35885 ft | 433 kts | 303° |
| 2026-04-25 19:25 | 44.83787 | -112.02422 | 35886 ft | 434 kts | 304° |
| 2026-04-25 19:25 | 44.87373 | -112.09208 | 35885 ft | 435 kts | 304° |
| 2026-04-25 19:26 | 44.90960 | -112.16016 | 35875 ft | 434 kts | 304° |
| 2026-04-25 19:26 | 44.94579 | -112.22900 | 35866 ft | 435 kts | 304° |
| 2026-04-25 19:27 | 44.97552 | -112.28571 | 35866 ft | 434 kts | 304° |
| 2026-04-25 19:27 | 45.01739 | -112.36573 | 35876 ft | 435 kts | 304° |
| 2026-04-25 19:28 | 45.05329 | -112.43457 | 35887 ft | 436 kts | 304° |
| 2026-04-25 19:28 | 45.08927 | -112.50370 | 35904 ft | 438 kts | 304° |
| 2026-04-25 19:29 | 45.12508 | -112.57267 | 35919 ft | 437 kts | 304° |
| 2026-04-25 19:29 | 45.16110 | -112.64222 | 35918 ft | 437 kts | 304° |
| 2026-04-25 19:30 | 45.19683 | -112.71136 | 35917 ft | 437 kts | 304° |
| 2026-04-25 19:30 | 45.23269 | -112.78088 | 35913 ft | 437 kts | 304° |
| 2026-04-25 19:31 | 45.26845 | -112.85040 | 35901 ft | 437 kts | 304° |
| 2026-04-25 19:31 | 45.30407 | -112.91984 | 35873 ft | 437 kts | 304° |
| 2026-04-25 19:32 | 45.33983 | -112.98972 | 35854 ft | 437 kts | 304° |
| 2026-04-25 19:32 | 45.36954 | -113.04792 | 35834 ft | 438 kts | 304° |
| 2026-04-25 19:33 | 45.41105 | -113.12941 | 35818 ft | 438 kts | 304° |
| 2026-04-25 19:33 | 45.44664 | -113.19946 | 35808 ft | 438 kts | 304° |
| 2026-04-25 19:34 | 45.48255 | -113.27032 | 35808 ft | 438 kts | 304° |
| 2026-04-25 19:34 | 45.51803 | -113.34052 | 35825 ft | 439 kts | 304° |
| 2026-04-25 19:35 | 45.55359 | -113.41106 | 35842 ft | 439 kts | 304° |
| 2026-04-25 19:35 | 45.58911 | -113.48164 | 35854 ft | 440 kts | 304° |
| 2026-04-25 19:36 | 45.62474 | -113.55265 | 35859 ft | 440 kts | 304° |
| 2026-04-25 19:36 | 45.66026 | -113.62363 | 35847 ft | 441 kts | 305° |
| 2026-04-25 19:37 | 45.69565 | -113.69450 | 35831 ft | 441 kts | 304° |
| 2026-04-25 19:37 | 45.73128 | -113.76607 | 35815 ft | 441 kts | 304° |
| 2026-04-25 19:38 | 45.76662 | -113.83721 | 35816 ft | 442 kts | 304° |
| 2026-04-25 19:38 | 45.80226 | -113.90913 | 35820 ft | 442 kts | 304° |
| 2026-04-25 19:39 | 45.83765 | -113.98072 | 35826 ft | 443 kts | 304° |
| 2026-04-25 19:39 | 45.87648 | -114.04865 | 35838 ft | 444 kts | 316° |
| 2026-04-25 19:40 | 45.90134 | -114.07538 | 35845 ft | 446 kts | 328° |
| 2026-04-25 19:40 | 45.92918 | -114.09477 | 35851 ft | 449 kts | 338° |
| 2026-04-25 19:40 | 45.98369 | -114.11905 | 35733 ft | 446 kts | 344° |
| 2026-04-25 19:41 | 46.01346 | -114.12982 | 35543 ft | 438 kts | 345° |
| 2026-04-25 19:41 | 46.04279 | -114.13984 | 35298 ft | 434 kts | 346° |
| 2026-04-25 19:41 | 46.07193 | -114.14963 | 34974 ft | 431 kts | 346° |
| 2026-04-25 19:41 | 46.09148 | -114.15621 | 34721 ft | 430 kts | 346° |
| 2026-04-25 19:42 | 46.12994 | -114.16927 | 34217 ft | 429 kts | 346° |
| 2026-04-25 19:42 | 46.15928 | -114.17937 | 33925 ft | 429 kts | 346° |
| 2026-04-25 19:42 | 46.18844 | -114.18948 | 33711 ft | 430 kts | 346° |
| 2026-04-25 19:42 | 46.21739 | -114.19961 | 33428 ft | 430 kts | 346° |
| 2026-04-25 19:43 | 46.24614 | -114.20972 | 32928 ft | 433 kts | 346° |
| 2026-04-25 19:43 | 46.27551 | -114.22008 | 32197 ft | 441 kts | 346° |
| 2026-04-25 19:43 | 46.30523 | -114.23060 | 31384 ft | 444 kts | 346° |
| 2026-04-25 19:43 | 46.33512 | -114.24120 | 30393 ft | 442 kts | 346° |
| 2026-04-25 19:44 | 46.36464 | -114.25166 | 29521 ft | 436 kts | 346° |
| 2026-04-25 19:44 | 46.39389 | -114.26206 | 28747 ft | 428 kts | 346° |
| 2026-04-25 19:44 | 46.42253 | -114.27227 | 27980 ft | 420 kts | 346° |
| 2026-04-25 19:44 | 46.45057 | -114.28228 | 27237 ft | 421 kts | 346° |
| 2026-04-25 19:45 | 46.47892 | -114.29243 | 26479 ft | 423 kts | 346° |
| 2026-04-25 19:45 | 46.50757 | -114.30271 | 25719 ft | 425 kts | 346° |
| 2026-04-25 19:45 | 46.53623 | -114.31300 | 24960 ft | 427 kts | 346° |
| 2026-04-25 19:45 | 46.56519 | -114.32340 | 24194 ft | 426 kts | 346° |
| 2026-04-25 19:46 | 46.59343 | -114.33353 | 23476 ft | 424 kts | 346° |
| 2026-04-25 19:46 | 46.62215 | -114.34385 | 22753 ft | 422 kts | 346° |
| 2026-04-25 19:46 | 46.65031 | -114.35397 | 22041 ft | 419 kts | 345° |
| 2026-04-25 19:46 | 46.67854 | -114.36412 | 21382 ft | 415 kts | 345° |
| 2026-04-25 19:47 | 46.70589 | -114.37396 | 20706 ft | 405 kts | 345° |
| 2026-04-25 19:47 | 46.73295 | -114.38371 | 19961 ft | 396 kts | 345° |
| 2026-04-25 19:47 | 46.75937 | -114.39323 | 19212 ft | 387 kts | 345° |
| 2026-04-25 19:47 | 46.78487 | -114.40246 | 18475 ft | 380 kts | 345° |
| 2026-04-25 19:48 | 46.81039 | -114.41172 | 17747 ft | 372 kts | 345° |
| 2026-04-25 19:48 | 46.83514 | -114.42072 | 17023 ft | 366 kts | 345° |
| 2026-04-25 19:48 | 46.85935 | -114.42955 | 16294 ft | 360 kts | 345° |
| 2026-04-25 19:48 | 46.88331 | -114.43828 | 15554 ft | 355 kts | 345° |
| 2026-04-25 19:49 | 46.90707 | -114.44696 | 14814 ft | 350 kts | 345° |
| 2026-04-25 19:49 | 46.92268 | -114.45265 | 14350 ft | 346 kts | 345° |
| 2026-04-25 19:49 | 46.95281 | -114.46362 | 14012 ft | 326 kts | 345° |
| 2026-04-25 19:49 | 46.97432 | -114.47144 | 13983 ft | 309 kts | 345° |
| 2026-04-25 19:50 | 47.01458 | -114.48610 | 13989 ft | 296 kts | 345° |
| 2026-04-25 19:50 | 47.03467 | -114.49342 | 13989 ft | 302 kts | 345° |
| 2026-04-25 19:50 | 47.05517 | -114.50093 | 13958 ft | 308 kts | 345° |
| 2026-04-25 19:51 | 47.07604 | -114.50847 | 13719 ft | 305 kts | 345° |
| 2026-04-25 19:51 | 47.09637 | -114.51588 | 13456 ft | 298 kts | 345° |
| 2026-04-25 19:51 | 47.11628 | -114.52304 | 13197 ft | 291 kts | 347° |
| 2026-04-25 19:51 | 47.13601 | -114.52601 | 12990 ft | 286 kts | 5° |
| 2026-04-25 19:52 | 47.15431 | -114.51565 | 12966 ft | 289 kts | 37° |
| 2026-04-25 19:52 | 47.16632 | -114.49225 | 12959 ft | 295 kts | 69° |
| 2026-04-25 19:52 | 47.16842 | -114.46257 | 12855 ft | 294 kts | 100° |
| 2026-04-25 19:52 | 47.16025 | -114.43546 | 12436 ft | 293 kts | 128° |
| 2026-04-25 19:53 | 47.14574 | -114.41460 | 11969 ft | 294 kts | 143° |
| 2026-04-25 19:53 | 47.12940 | -114.39696 | 11502 ft | 295 kts | 141° |
| 2026-04-25 19:53 | 47.11447 | -114.37683 | 11029 ft | 292 kts | 135° |
| 2026-04-25 19:53 | 47.10056 | -114.35526 | 10570 ft | 287 kts | 133° |
| 2026-04-25 19:54 | 47.08577 | -114.33614 | 10024 ft | 286 kts | 147° |
| 2026-04-25 19:54 | 47.06866 | -114.32213 | 9411 ft | 275 kts | 154° |
| 2026-04-25 19:54 | 47.05201 | -114.31007 | 8801 ft | 259 kts | 150° |
| 2026-04-25 19:54 | 47.04237 | -114.30032 | 8454 ft | 249 kts | 139° |
| 2026-04-25 19:55 | 47.02647 | -114.27725 | 7533 ft | 239 kts | 131° |
| 2026-04-25 19:55 | 47.01625 | -114.25897 | 6815 ft | 232 kts | 126° |
| 2026-04-25 19:55 | 47.00697 | -114.24013 | 6090 ft | 227 kts | 124° |
| 2026-04-25 19:55 | 46.99826 | -114.22224 | 5898 ft | 199 kts | 126° |
| 2026-04-25 19:56 | 46.99002 | -114.20856 | 5984 ft | 167 kts | 134° |
| 2026-04-25 19:56 | 46.98175 | -114.19659 | 5957 ft | 166 kts | 135° |
| 2026-04-25 19:56 | 46.97334 | -114.18522 | 5645 ft | 166 kts | 140° |
| 2026-04-25 19:56 | 46.96474 | -114.17423 | 5190 ft | 165 kts | 135° |
| 2026-04-25 19:57 | 46.95672 | -114.16202 | 4668 ft | 168 kts | 129° |
| 2026-04-25 19:57 | 46.94932 | -114.14888 | 4184 ft | 167 kts | 127° |
| 2026-04-25 19:57 | 46.94220 | -114.13609 | 3786 ft | 162 kts | 130° |
| 2026-04-25 19:57 | 46.93494 | -114.12395 | 3527 ft | 154 kts | 129° |
| 2026-04-25 19:58 | 46.92813 | -114.11220 | 3325 ft | 155 kts | 129° |
| 2026-04-25 19:58 | 46.92113 | -114.10030 | 3192 ft | 142 kts | 130° |
| 2026-04-25 19:58 | 46.91723 | -114.09356 | 3198 ft | 44 kts | 129° |
| 2026-04-25 19:58 | 46.91538 | -114.09036 | 3197 ft | 37 kts | 129° |
| 2026-04-25 19:59 | 46.91370 | -114.08754 | 3197 ft | 35 kts | 130° |
| 2026-04-25 19:59 | 46.91279 | -114.08564 | 3199 ft | 16 kts | 104° |
| 2026-04-25 19:59 | 46.91320 | -114.08442 | 3200 ft | 11 kts | 39° |
| 2026-04-25 19:59 | 46.91380 | -114.08413 | 3200 ft | 9 kts | 322° |
| 2026-04-25 20:00 | 46.91426 | -114.08482 | 3200 ft | 9 kts | 313° |
| 2026-04-25 20:00 | 46.91460 | -114.08536 | 3200 ft | 11 kts | 314° |
| 2026-04-25 20:00 | 46.91563 | -114.08575 | 3201 ft | 11 kts | 360° |
| 2026-04-25 20:00 | 46.91648 | -114.08575 | 3202 ft | 11 kts | 0° |
| 2026-04-25 20:01 | 46.91779 | -114.08555 | 3204 ft | 8 kts | 351° |
| 2026-04-25 20:01 | 46.91820 | -114.08594 | 3204 ft | 6 kts | 322° |
| 2026-04-25 20:01 | 46.91857 | -114.08637 | 3204 ft | 6 kts | 322° |
| 2026-04-25 20:02 | 46.91890 | -114.08645 | 3204 ft | 4 kts | 27° |
| 2026-04-25 20:02 | 46.91910 | -114.08620 | 3204 ft | 1 kts | 71° |
| 2026-04-25 20:02 | 46.91907 | -114.08604 | 3204 ft | 4 kts | 112° |
| 2026-04-25 20:02 | 46.91893 | -114.08558 | 3204 ft | 4 kts | 112° |
| 2026-04-25 20:03 | 46.91884 | -114.08524 | 3204 ft | 2 kts | 112° |
| 2026-04-25 20:03 | 46.91882 | -114.08518 | 3204 ft | 0 kts | 112° |
| 2026-04-25 20:09 | 63.99281 | -22.62461 | 139 ft | 0 kts | 360° |